FRS96 EDFM-EDRY
Flight info
| Callsign | FRS96 |
|---|---|
| Flight time | 0h -9m |
| Altitude | 2200 |
| Route | DCT |
| Aircraft | C172/L-DGY/L |
Departure
| Time | 2026-05-08 19:22 |
|---|---|
| Airport | Mannheim-City Airport (EDFM) |
Arrival
| Time | 2026-05-08 19:13 |
|---|---|
| Airport | Speyer Airfield (EDRY) |
| Time | Latitude | Longitude | Altitude | Speed | Heading |
|---|---|---|---|---|---|
| 2026-05-08 19:12 | 49.47559 | 8.52084 | 311 ft | 0 kts | 184° |
| 2026-05-08 19:16 | 49.47542 | 8.52106 | 310 ft | 13 kts | 98° |
| 2026-05-08 19:16 | 49.47477 | 8.52172 | 310 ft | 21 kts | 180° |
| 2026-05-08 19:16 | 49.47341 | 8.52156 | 310 ft | 3 kts | 183° |
| 2026-05-08 19:16 | 49.47332 | 8.52155 | 310 ft | 0 kts | 181° |
| 2026-05-08 19:19 | 49.47287 | 8.52155 | 310 ft | 22 kts | 181° |
| 2026-05-08 19:19 | 49.47197 | 8.52027 | 309 ft | 19 kts | 273° |
| 2026-05-08 19:20 | 49.47206 | 8.51764 | 309 ft | 31 kts | 274° |
| 2026-05-08 19:20 | 49.47212 | 8.51650 | 309 ft | 35 kts | 276° |
| 2026-05-08 19:20 | 49.47233 | 8.51008 | 310 ft | 32 kts | 274° |
| 2026-05-08 19:20 | 49.47246 | 8.50755 | 310 ft | 4 kts | 301° |
| 2026-05-08 19:21 | 49.47248 | 8.50750 | 310 ft | 0 kts | 300° |
| 2026-05-08 19:21 | 49.47249 | 8.50747 | 310 ft | 4 kts | 300° |
| 2026-05-08 19:21 | 49.47293 | 8.50663 | 311 ft | 1 kts | 48° |
| 2026-05-08 19:21 | 49.47292 | 8.50944 | 311 ft | 52 kts | 93° |
| 2026-05-08 19:22 | 49.47247 | 8.51652 | 386 ft | 74 kts | 88° |
| 2026-05-08 19:22 | 49.47219 | 8.52417 | 619 ft | 67 kts | 88° |
| 2026-05-08 19:22 | 49.47118 | 8.53162 | 781 ft | 77 kts | 115° |
| 2026-05-08 19:22 | 49.46640 | 8.53575 | 998 ft | 86 kts | 180° |
| 2026-05-08 19:23 | 49.46057 | 8.53164 | 1141 ft | 97 kts | 207° |
| 2026-05-08 19:23 | 49.45424 | 8.52660 | 1319 ft | 107 kts | 207° |
| 2026-05-08 19:23 | 49.44733 | 8.52079 | 1428 ft | 120 kts | 206° |
| 2026-05-08 19:23 | 49.43956 | 8.51571 | 1589 ft | 119 kts | 195° |
| 2026-05-08 19:24 | 49.43126 | 8.51191 | 1690 ft | 127 kts | 193° |
| 2026-05-08 19:24 | 49.42298 | 8.50794 | 1883 ft | 127 kts | 191° |
| 2026-05-08 19:24 | 49.41406 | 8.50460 | 1907 ft | 136 kts | 187° |
| 2026-05-08 19:24 | 49.40472 | 8.50257 | 1909 ft | 136 kts | 180° |
| 2026-05-08 19:25 | 49.39839 | 8.50169 | 1848 ft | 139 kts | 180° |
| 2026-05-08 19:25 | 49.38585 | 8.50044 | 1720 ft | 133 kts | 167° |
| 2026-05-08 19:25 | 49.38021 | 8.50391 | 1599 ft | 131 kts | 144° |
| 2026-05-08 19:25 | 49.37298 | 8.51195 | 1476 ft | 128 kts | 141° |
| 2026-05-08 19:26 | 49.36655 | 8.51942 | 1399 ft | 116 kts | 140° |
| 2026-05-08 19:26 | 49.35997 | 8.52672 | 1253 ft | 115 kts | 142° |
| 2026-05-08 19:26 | 49.35349 | 8.53325 | 1244 ft | 109 kts | 142° |
| 2026-05-08 19:26 | 49.34750 | 8.53998 | 1135 ft | 112 kts | 140° |
| 2026-05-08 19:27 | 49.34148 | 8.54720 | 1079 ft | 108 kts | 138° |
| 2026-05-08 19:27 | 49.33543 | 8.55405 | 1009 ft | 106 kts | 146° |
| 2026-05-08 19:27 | 49.32856 | 8.55734 | 940 ft | 106 kts | 188° |
| 2026-05-08 19:27 | 49.32346 | 8.55009 | 907 ft | 106 kts | 255° |
| 2026-05-08 19:28 | 49.32305 | 8.53905 | 989 ft | 103 kts | 274° |
| 2026-05-08 19:28 | 49.32306 | 8.52763 | 1052 ft | 110 kts | 274° |
| 2026-05-08 19:28 | 49.32330 | 8.51581 | 1134 ft | 112 kts | 273° |
| 2026-05-08 19:28 | 49.32332 | 8.50393 | 1182 ft | 116 kts | 273° |
| 2026-05-08 19:29 | 49.32376 | 8.49166 | 1245 ft | 117 kts | 277° |
| 2026-05-08 19:29 | 49.32301 | 8.47916 | 1219 ft | 123 kts | 239° |
| 2026-05-08 19:29 | 49.31530 | 8.47765 | 1082 ft | 124 kts | 148° |
| 2026-05-08 19:29 | 49.30809 | 8.48362 | 1168 ft | 112 kts | 154° |
| 2026-05-08 19:30 | 49.30007 | 8.48692 | 943 ft | 124 kts | 165° |
| 2026-05-08 19:30 | 49.29261 | 8.49149 | 960 ft | 101 kts | 152° |
| 2026-05-08 19:30 | 49.28693 | 8.49634 | 922 ft | 89 kts | 144° |
| 2026-05-08 19:30 | 49.28203 | 8.50182 | 806 ft | 87 kts | 155° |
| 2026-05-08 19:31 | 49.27722 | 8.49828 | 772 ft | 83 kts | 251° |
| 2026-05-08 19:31 | 49.27572 | 8.48936 | 690 ft | 92 kts | 262° |
| 2026-05-08 19:31 | 49.27449 | 8.47996 | 755 ft | 90 kts | 263° |
| 2026-05-08 19:31 | 49.27349 | 8.47133 | 894 ft | 78 kts | 262° |
| 2026-05-08 19:32 | 49.27419 | 8.46359 | 923 ft | 77 kts | 333° |
| 2026-05-08 19:32 | 49.27974 | 8.46076 | 865 ft | 89 kts | 349° |
| 2026-05-08 19:32 | 49.28569 | 8.45902 | 720 ft | 82 kts | 352° |
| 2026-05-08 19:32 | 49.29100 | 8.45720 | 523 ft | 74 kts | 347° |
| 2026-05-08 19:33 | 49.29562 | 8.45543 | 395 ft | 67 kts | 347° |
| 2026-05-08 19:33 | 49.29982 | 8.45373 | 334 ft | 52 kts | 348° |
| 2026-05-08 19:33 | 49.30272 | 8.45263 | 331 ft | 37 kts | 346° |
| 2026-05-08 19:33 | 49.30475 | 8.45205 | 330 ft | 21 kts | 15° |
| 2026-05-08 19:34 | 49.30590 | 8.45194 | 332 ft | 10 kts | 6° |
| 2026-05-08 19:34 | 49.30604 | 8.45197 | 333 ft | 3 kts | 7° |
| 2026-05-08 19:34 | 49.30632 | 8.45202 | 333 ft | 2 kts | 9° |
| 2026-05-08 19:34 | 49.30635 | 8.45203 | 333 ft | 0 kts | 9° |
| 2026-05-08 19:35 | 49.30694 | 8.45210 | 333 ft | 19 kts | 354° |
| 2026-05-08 19:35 | 49.30811 | 8.45147 | 333 ft | 16 kts | 340° |
| 2026-05-08 19:35 | 49.30901 | 8.45112 | 333 ft | 8 kts | 30° |
| 2026-05-08 19:35 | 49.30900 | 8.45146 | 333 ft | 6 kts | 190° |
| 2026-05-08 19:36 | 49.30894 | 8.45143 | 333 ft | 0 kts | 245° |